Time;durP1;ratioP1;P1;durP2;ratioP2;P2;SDS_P1;SDS_P2;PMS_P1;PMS_P2;Temp;Humidity;BMP_temperature;BMP_pressure;BME280_temperature;BME280_humidity;BME280_pressure;Samples;Min_cycle;Max_cycle;Signal;HPM_P1;HPM_P2
2022/05/08 00:00:10;;;;;;;2.67;0.90;;;16.50;99.90;;;;;;5067159;28;20367;-85
2022/05/08 00:02:41;;;;;;;2.92;0.90;;;16.60;99.90;;;;;;5068629;28;20757;-85
2022/05/08 00:05:14;;;;;;;1.70;0.80;;;16.60;99.90;;;;;;5070127;28;21061;-84
2022/05/08 00:07:44;;;;;;;2.22;0.90;;;16.70;99.90;;;;;;5067000;28;20199;-85
2022/05/08 00:10:15;;;;;;;2.58;0.90;;;16.70;99.90;;;;;;5070410;28;20902;-85
2022/05/08 00:12:46;;;;;;;2.90;0.90;;;16.80;99.90;;;;;;5066261;28;20210;-85
2022/05/08 00:15:17;;;;;;;1.73;1.00;;;16.90;99.90;;;;;;5065901;28;20211;-85
2022/05/08 00:17:47;;;;;;;4.00;1.35;;;17.00;99.90;;;;;;5063853;28;20204;-85
2022/05/08 00:20:20;;;;;;;4.30;1.10;;;17.10;99.90;;;;;;5063477;28;20277;-84
2022/05/08 00:22:50;;;;;;;1.55;0.82;;;17.20;99.90;;;;;;5067334;28;20210;-85
2022/05/08 00:25:22;;;;;;;2.47;0.82;;;17.30;99.90;;;;;;5062986;28;20309;-85
2022/05/08 00:27:52;;;;;;;2.33;1.10;;;17.50;99.90;;;;;;5068579;28;20501;-85
2022/05/08 00:30:23;;;;;;;2.08;1.00;;;17.50;99.90;;;;;;5065687;28;20196;-85
2022/05/08 00:32:53;;;;;;;2.20;1.10;;;17.50;99.90;;;;;;5063324;28;20253;-85
2022/05/08 00:35:26;;;;;;;1.60;1.08;;;17.60;99.90;;;;;;5063862;28;20337;-85
2022/05/08 00:37:57;;;;;;;3.28;1.00;;;17.60;99.90;;;;;;5064936;28;20196;-84
2022/05/08 00:40:27;;;;;;;2.15;1.15;;;17.60;99.90;;;;;;5064900;28;20217;-86
2022/05/08 00:42:58;;;;;;;2.00;0.95;;;17.60;99.90;;;;;;5064848;28;20241;-86
2022/05/08 00:45:29;;;;;;;1.17;0.80;;;17.60;99.90;;;;;;5067979;28;20220;-85
2022/05/08 00:48:01;;;;;;;1.15;0.70;;;17.70;99.90;;;;;;5063028;28;20265;-86
2022/05/08 00:50:34;;;;;;;2.50;1.02;;;17.80;99.90;;;;;;5064014;28;20215;-86
2022/05/08 00:53:05;;;;;;;2.03;1.00;;;17.90;99.90;;;;;;5063009;28;21018;-86
2022/05/08 00:55:36;;;;;;;1.70;0.80;;;18.00;99.90;;;;;;5063508;28;20823;-85
2022/05/08 00:58:08;;;;;;;5.00;0.90;;;18.00;99.90;;;;;;5065614;28;20623;-86
2022/05/08 01:00:38;;;;;;;1.95;0.60;;;18.10;99.90;;;;;;5063607;28;20718;-85
2022/05/08 01:03:09;;;;;;;1.33;0.50;;;18.10;99.90;;;;;;5068299;28;20234;-86
2022/05/08 01:05:44;;;;;;;1.35;0.70;;;18.10;99.90;;;;;;5064555;28;20234;-86
2022/05/08 01:08:16;;;;;;;1.85;0.60;;;18.20;99.90;;;;;;5065064;28;20198;-86
2022/05/08 01:10:47;;;;;;;1.60;0.75;;;18.30;99.90;;;;;;5062909;28;20758;-85
2022/05/08 01:13:17;;;;;;;1.33;0.47;;;18.40;99.90;;;;;;5065073;28;20215;-86
2022/05/08 01:15:48;;;;;;;2.05;0.60;;;18.50;99.90;;;;;;5062325;28;20211;-85
2022/05/08 01:18:19;;;;;;;1.38;0.60;;;18.60;99.90;;;;;;5061798;28;20223;-86
2022/05/08 01:20:55;;;;;;;2.03;0.50;;;18.60;99.90;;;;;;5064583;28;20212;-86
2022/05/08 01:23:27;;;;;;;1.23;0.70;;;18.70;99.90;;;;;;5064671;28;20231;-86
2022/05/08 01:25:59;;;;;;;0.63;0.50;;;18.80;99.90;;;;;;5063341;28;20818;-86
2022/05/08 01:28:29;;;;;;;1.77;0.45;;;19.00;99.90;;;;;;5065991;28;20204;-85
2022/05/08 01:31:00;;;;;;;1.60;0.70;;;19.00;99.90;;;;;;5064782;28;20272;-86
2022/05/08 01:33:31;;;;;;;2.88;1.00;;;19.00;99.90;;;;;;5065969;28;20218;-85
2022/05/08 01:36:02;;;;;;;1.88;1.02;;;19.10;99.90;;;;;;5063823;28;20227;-85
2022/05/08 01:38:36;;;;;;;1.67;0.80;;;19.10;99.90;;;;;;5063265;28;20575;-86
2022/05/08 01:41:08;;;;;;;2.63;0.77;;;19.20;99.90;;;;;;5065705;28;20221;-86
2022/05/08 01:43:38;;;;;;;1.25;0.40;;;19.20;99.90;;;;;;5063326;28;20200;-85
2022/05/08 01:46:09;;;;;;;1.48;1.20;;;19.20;99.90;;;;;;5076180;28;20219;-87
2022/05/08 01:48:39;;;;;;;0.77;0.55;;;19.20;99.90;;;;;;5065477;28;20199;-84
2022/05/08 01:51:12;;;;;;;1.65;0.95;;;19.30;99.90;;;;;;5060488;28;20196;-84
2022/05/08 01:53:46;;;;;;;2.08;1.40;;;19.30;99.90;;;;;;5062697;28;20671;-84
2022/05/08 01:56:17;;;;;;;1.58;0.80;;;19.40;99.90;;;;;;5060627;28;20229;-84
2022/05/08 01:58:50;;;;;;;1.67;0.90;;;19.40;99.90;;;;;;5066103;28;20261;-83
2022/05/08 02:01:21;;;;;;;0.60;0.40;;;19.40;99.90;;;;;;5061014;28;20195;-83
2022/05/08 02:03:52;;;;;;;0.65;0.45;;;19.50;99.90;;;;;;5061203;28;20231;-84
2022/05/08 02:06:23;;;;;;;2.30;1.25;;;19.50;99.90;;;;;;5063730;28;20230;-83
2022/05/08 02:08:55;;;;;;;1.23;0.82;;;19.60;99.90;;;;;;5060777;28;20640;-83
2022/05/08 02:11:26;;;;;;;1.05;0.60;;;19.70;99.90;;;;;;5060075;28;20211;-84
2022/05/08 02:13:56;;;;;;;1.80;0.77;;;19.70;99.90;;;;;;5063178;28;20191;-84
2022/05/08 02:16:28;;;;;;;1.27;0.73;;;19.80;99.90;;;;;;5061375;28;20207;-83
2022/05/08 02:19:01;;;;;;;1.58;0.85;;;19.90;99.90;;;;;;5062793;28;20643;-83
2022/05/08 02:21:33;;;;;;;1.73;0.60;;;19.80;99.90;;;;;;5062478;28;20237;-82
2022/05/08 02:24:07;;;;;;;0.68;0.47;;;19.80;99.90;;;;;;5058809;28;20199;-82
2022/05/08 02:26:37;;;;;;;1.27;0.60;;;19.80;99.90;;;;;;5062587;28;20255;-84
2022/05/08 02:29:08;;;;;;;1.00;0.60;;;19.90;99.90;;;;;;5058635;28;20692;-81
2022/05/08 02:31:38;;;;;;;2.70;0.40;;;20.00;99.90;;;;;;5061601;28;20200;-82
2022/05/08 02:34:09;;;;;;;1.35;0.70;;;20.00;99.90;;;;;;5058311;28;20288;-83
2022/05/08 02:36:40;;;;;;;6.63;4.65;;;20.10;99.90;;;;;;5056873;28;20204;-82
2022/05/08 02:39:13;;;;;;;2.25;0.70;;;20.20;99.90;;;;;;5062663;28;20264;-82
2022/05/08 02:41:43;;;;;;;3.20;0.40;;;20.20;99.90;;;;;;5057899;28;20208;-82
2022/05/08 02:44:14;;;;;;;2.67;0.60;;;20.20;99.90;;;;;;5060757;28;20713;-81
2022/05/08 02:46:45;;;;;;;2.40;0.70;;;20.20;99.90;;;;;;5059118;28;20581;-83
2022/05/08 02:49:15;;;;;;;0.73;0.40;;;20.20;99.90;;;;;;5059555;28;20204;-82
2022/05/08 02:51:46;;;;;;;0.70;0.47;;;20.30;99.90;;;;;;5060478;28;20256;-83
2022/05/08 02:54:19;;;;;;;1.42;0.60;;;20.30;99.90;;;;;;5061623;28;20269;-83
2022/05/08 02:59:36;;;;;;;1.05;0.38;;;20.50;99.90;;;;;;5064815;28;20218;-85
2022/05/08 03:02:07;;;;;;;0.60;0.40;;;20.60;99.90;;;;;;5059313;28;20276;-83
2022/05/08 03:04:41;;;;;;;0.43;0.32;;;20.70;99.90;;;;;;5058566;28;20220;-83
2022/05/08 03:07:12;;;;;;;0.80;0.40;;;20.70;99.90;;;;;;5060200;28;20235;-83
2022/05/08 03:09:44;;;;;;;3.90;0.52;;;20.80;99.90;;;;;;5063179;28;20224;-85
2022/05/08 03:12:15;;;;;;;1.67;0.50;;;20.70;99.90;;;;;;5062319;28;20309;-83
2022/05/08 03:14:46;;;;;;;1.05;0.70;;;20.70;99.90;;;;;;5062539;28;20273;-83
2022/05/08 03:17:17;;;;;;;1.40;0.50;;;20.70;99.90;;;;;;5058807;28;20636;-83
2022/05/08 03:19:48;;;;;;;3.78;0.50;;;20.70;99.90;;;;;;5058505;28;20828;-83
2022/05/08 03:22:19;;;;;;;0.75;0.40;;;20.70;99.90;;;;;;5061855;28;20294;-83
2022/05/08 03:24:54;;;;;;;1.88;0.45;;;20.70;99.90;;;;;;5062920;28;20330;-83
2022/05/08 03:27:24;;;;;;;1.35;0.30;;;20.70;99.90;;;;;;5064523;28;20227;-83
2022/05/08 03:29:55;;;;;;;1.33;0.47;;;20.70;99.90;;;;;;5063544;28;20582;-83
2022/05/08 03:32:26;;;;;;;1.02;0.40;;;20.70;99.90;;;;;;5061918;28;20209;-82
2022/05/08 03:34:56;;;;;;;1.38;0.60;;;20.70;99.90;;;;;;5060345;28;21096;-83
2022/05/08 03:37:27;;;;;;;1.85;0.43;;;20.70;99.90;;;;;;5061430;28;20196;-83
2022/05/08 03:39:59;;;;;;;1.00;0.30;;;20.70;99.90;;;;;;5069052;28;20192;-83
2022/05/08 03:42:30;;;;;;;0.57;0.50;;;20.60;99.90;;;;;;5065798;28;20200;-83
2022/05/08 03:45:01;;;;;;;1.42;0.60;;;20.60;99.90;;;;;;5064828;28;20196;-82
2022/05/08 03:47:31;;;;;;;1.73;0.65;;;20.50;99.90;;;;;;5065013;28;20257;-83
2022/05/08 03:50:02;;;;;;;0.95;0.40;;;20.50;99.90;;;;;;5064477;28;20207;-83
2022/05/08 03:52:34;;;;;;;1.15;0.40;;;20.40;99.90;;;;;;5065380;28;20222;-83
2022/05/08 03:55:07;;;;;;;0.43;0.30;;;20.50;99.90;;;;;;5066961;28;20210;-85
2022/05/08 03:57:38;;;;;;;1.45;0.30;;;20.50;99.90;;;;;;5070980;28;20211;-85
2022/05/08 04:00:10;;;;;;;0.40;0.20;;;20.40;99.90;;;;;;5068124;28;20516;-84
2022/05/08 04:02:40;;;;;;;0.80;0.60;;;20.40;99.90;;;;;;5067495;28;20242;-85
2022/05/08 04:05:13;;;;;;;0.70;0.38;;;20.40;99.90;;;;;;5063674;28;20216;-87
2022/05/08 04:07:44;;;;;;;0.50;0.40;;;20.40;99.90;;;;;;5064228;28;20235;-87
2022/05/08 04:10:16;;;;;;;0.55;0.20;;;20.40;99.90;;;;;;5065251;28;20643;-87
2022/05/08 04:12:50;;;;;;;0.57;0.50;;;20.30;99.90;;;;;;5067274;28;20655;-85
2022/05/08 04:18:07;;;;;;;4.40;0.80;;;20.30;99.90;;;;;;5066010;28;20385;-87
2022/05/08 04:20:39;;;;;;;1.00;0.55;;;20.30;99.90;;;;;;5068749;28;20366;-88
2022/05/08 04:25:58;;;;;;;2.10;0.60;;;20.40;99.90;;;;;;5065419;28;20436;-86
2022/05/08 04:28:29;;;;;;;1.95;0.52;;;20.40;99.90;;;;;;5065910;28;20196;-83
2022/05/08 04:31:00;;;;;;;1.50;0.50;;;20.30;99.90;;;;;;5062694;28;20305;-83
2022/05/08 04:33:30;;;;;;;1.33;0.50;;;20.30;99.90;;;;;;5062118;28;20647;-83
2022/05/08 04:36:01;;;;;;;1.35;0.50;;;20.30;99.90;;;;;;5062336;28;20207;-79
2022/05/08 04:38:34;;;;;;;11.02;5.20;;;20.30;99.90;;;;;;5063066;28;20421;-81
2022/05/08 04:41:08;;;;;;;2.38;1.10;;;20.30;99.90;;;;;;5060175;28;20199;-81
2022/05/08 04:43:38;;;;;;;8.77;1.88;;;20.30;99.90;;;;;;5061361;28;20196;-82
2022/05/08 04:46:10;;;;;;;2.95;0.98;;;20.30;99.90;;;;;;5063407;28;20232;-82
2022/05/08 04:48:41;;;;;;;1.90;0.40;;;20.30;99.90;;;;;;5064271;28;21627;-83
2022/05/08 04:51:13;;;;;;;2.05;0.50;;;20.20;99.90;;;;;;5060074;28;20196;-85
2022/05/08 04:53:44;;;;;;;3.95;0.50;;;20.20;99.90;;;;;;5068755;28;20200;-85
2022/05/08 04:56:17;;;;;;;1.35;0.52;;;20.20;99.90;;;;;;5071710;28;20292;-83
2022/05/08 04:58:48;;;;;;;0.82;0.45;;;20.10;99.90;;;;;;5090951;28;20210;-86
2022/05/08 05:01:19;;;;;;;0.95;0.50;;;20.20;99.90;;;;;;5083875;28;20199;-83
2022/05/08 05:03:49;;;;;;;1.13;0.50;;;20.10;99.90;;;;;;5063006;28;20223;-85
2022/05/08 05:06:20;;;;;;;0.73;0.47;;;20.10;99.90;;;;;;5065072;28;20598;-85
2022/05/08 05:08:51;;;;;;;1.20;0.43;;;20.10;99.90;;;;;;5063697;28;20188;-86
2022/05/08 05:11:23;;;;;;;1.52;0.50;;;20.10;99.90;;;;;;5063276;28;20223;-86
2022/05/08 05:13:54;;;;;;;1.73;0.50;;;20.00;99.90;;;;;;5062135;28;20337;-85
2022/05/08 05:16:25;;;;;;;2.00;0.60;;;20.00;99.90;;;;;;5063477;28;20200;-86
2022/05/08 05:18:55;;;;;;;0.40;0.30;;;20.00;99.90;;;;;;5062858;28;20304;-82
2022/05/08 05:21:26;;;;;;;1.05;0.40;;;19.90;99.90;;;;;;5064185;28;20656;-83
2022/05/08 05:23:57;;;;;;;1.45;0.30;;;20.00;99.90;;;;;;5064061;28;20548;-82
2022/05/08 05:26:30;;;;;;;0.73;0.30;;;20.00;99.90;;;;;;5067242;28;20227;-83
2022/05/08 05:29:00;;;;;;;0.90;0.40;;;20.00;99.90;;;;;;5062523;28;20765;-83
2022/05/08 05:31:31;;;;;;;0.77;0.38;;;20.00;99.90;;;;;;5061173;28;20252;-82
2022/05/08 05:34:01;;;;;;;1.05;0.28;;;20.00;99.90;;;;;;5060646;28;20200;-82
2022/05/08 05:36:35;;;;;;;0.75;0.38;;;20.00;99.90;;;;;;5061922;28;20207;-82
2022/05/08 05:39:05;;;;;;;0.90;0.50;;;20.00;99.90;;;;;;5061641;28;20207;-84
2022/05/08 05:41:38;;;;;;;1.27;0.63;;;20.10;99.90;;;;;;5060644;28;20204;-82
2022/05/08 05:44:10;;;;;;;1.00;0.30;;;20.00;99.90;;;;;;5061754;28;20195;-84
2022/05/08 05:49:32;;;;;;;0.55;0.35;;;20.00;99.90;;;;;;5061155;28;20211;-84
2022/05/08 05:52:05;;;;;;;1.05;0.40;;;20.00;99.90;;;;;;5060094;28;20200;-84
2022/05/08 05:54:36;;;;;;;0.35;0.30;;;20.00;99.90;;;;;;5062673;28;20268;-84
2022/05/08 05:57:09;;;;;;;0.35;0.30;;;20.00;99.90;;;;;;5064366;28;20200;-79
2022/05/08 05:59:40;;;;;;;1.13;0.40;;;20.00;99.90;;;;;;5066137;28;20655;-83
2022/05/08 06:02:14;;;;;;;2.08;0.38;;;20.10;99.90;;;;;;5064195;28;20219;-83
2022/05/08 06:04:44;;;;;;;0.55;0.50;;;20.20;99.90;;;;;;5062033;28;20203;-83
2022/05/08 06:07:15;;;;;;;0.65;0.30;;;20.20;99.90;;;;;;5067379;28;20226;-82
2022/05/08 06:09:46;;;;;;;0.68;0.30;;;20.30;99.90;;;;;;5069044;28;20250;-82
2022/05/08 06:12:19;;;;;;;0.93;0.40;;;20.40;99.90;;;;;;5073947;28;20261;-82
2022/05/08 06:14:53;;;;;;;1.65;0.38;;;20.50;99.90;;;;;;5079413;28;20192;-83
2022/05/08 06:17:24;;;;;;;1.20;0.40;;;20.60;99.90;;;;;;5077179;28;20571;-83
2022/05/08 06:19:54;;;;;;;0.75;0.30;;;20.70;99.90;;;;;;5071656;28;20233;-83
2022/05/08 06:22:26;;;;;;;0.65;0.40;;;20.80;99.90;;;;;;5080590;28;20197;-82
2022/05/08 06:24:57;;;;;;;0.95;0.30;;;20.80;99.90;;;;;;5070190;28;20196;-83
2022/05/08 06:27:31;;;;;;;0.68;0.32;;;20.80;99.90;;;;;;5077782;28;20229;-83
2022/05/08 06:30:05;;;;;;;0.75;0.40;;;20.70;99.90;;;;;;5079182;28;20593;-82
2022/05/08 06:32:36;;;;;;;0.55;0.32;;;20.50;99.90;;;;;;5088951;28;20650;-82
2022/05/08 06:35:07;;;;;;;2.83;0.50;;;20.40;99.90;;;;;;5069675;28;20196;-83
2022/05/08 06:37:38;;;;;;;0.70;0.40;;;20.20;99.90;;;;;;5073983;28;20287;-83
2022/05/08 06:40:10;;;;;;;0.47;0.30;;;20.10;99.90;;;;;;5080176;28;20218;-83
2022/05/08 06:42:42;;;;;;;0.20;0.20;;;20.00;99.90;;;;;;5081085;28;20184;-83
2022/05/08 06:45:13;;;;;;;0.95;0.32;;;19.80;99.90;;;;;;5086811;28;20192;-82
2022/05/08 06:47:45;;;;;;;0.88;0.40;;;19.60;99.90;;;;;;5087077;28;20641;-84
2022/05/08 06:50:17;;;;;;;1.33;0.73;;;19.50;99.90;;;;;;5082664;28;20225;-83
2022/05/08 06:52:48;;;;;;;1.10;0.52;;;19.40;99.90;;;;;;5090346;28;20624;-83
2022/05/08 06:55:19;;;;;;;1.10;0.60;;;19.30;99.90;;;;;;5090098;28;20606;-83
2022/05/08 06:57:52;;;;;;;0.77;0.77;;;19.20;99.90;;;;;;5076511;28;20199;-83
2022/05/08 07:03:12;;;;;;;2.55;0.60;;;19.10;99.90;;;;;;5082488;28;20221;-83
2022/05/08 07:05:47;;;;;;;1.77;0.73;;;19.00;99.90;;;;;;5095967;28;20716;-86
2022/05/08 07:08:18;;;;;;;1.55;0.80;;;18.90;99.90;;;;;;5095082;28;20612;-85
2022/05/08 07:10:52;;;;;;;2.17;0.70;;;18.90;99.90;;;;;;5082991;28;20620;-86
2022/05/08 07:13:26;;;;;;;1.05;0.70;;;18.80;99.90;;;;;;5096969;28;20287;-85
2022/05/08 07:15:59;;;;;;;1.67;0.80;;;18.70;99.90;;;;;;5093685;28;20244;-84
2022/05/08 07:18:30;;;;;;;0.93;0.60;;;18.70;99.90;;;;;;5080120;28;20195;-84
2022/05/08 07:21:01;;;;;;;1.10;0.90;;;18.60;99.90;;;;;;5091498;28;20195;-85
2022/05/08 07:23:33;;;;;;;1.88;0.80;;;18.60;99.90;;;;;;5075720;28;20199;-83
2022/05/08 07:26:03;;;;;;;1.85;1.05;;;18.50;99.90;;;;;;5085372;28;20272;-83
2022/05/08 07:28:37;;;;;;;1.00;0.80;;;18.50;99.90;;;;;;5089528;28;20224;-80
2022/05/08 07:31:08;;;;;;;1.83;1.70;;;18.50;99.90;;;;;;5089887;28;20199;-82
2022/05/08 07:33:41;;;;;;;4.70;3.90;;;18.40;99.90;;;;;;5091330;28;20674;-81
2022/05/08 07:36:13;;;;;;;2.90;2.25;;;18.40;99.90;;;;;;5079535;28;20628;-82
2022/05/08 07:38:49;;;;;;;4.80;3.38;;;18.40;99.90;;;;;;5078329;28;20211;-82
2022/05/08 07:41:21;;;;;;;4.10;2.78;;;18.30;99.90;;;;;;5086121;28;20192;-82
2022/05/08 07:43:53;;;;;;;4.45;3.08;;;18.30;99.90;;;;;;5075893;28;20196;-82
2022/05/08 07:46:25;;;;;;;9.25;6.47;;;18.30;99.90;;;;;;5087606;28;20217;-82
2022/05/08 07:48:55;;;;;;;8.77;6.68;;;18.20;99.90;;;;;;5080491;28;20204;-83
2022/05/08 07:51:26;;;;;;;7.68;5.75;;;18.20;99.90;;;;;;5083921;28;20245;-83
2022/05/08 07:53:57;;;;;;;11.55;6.35;;;18.20;99.90;;;;;;5096171;28;20203;-83
2022/05/08 07:56:28;;;;;;;12.00;7.38;;;18.10;99.90;;;;;;5084791;28;20253;-83
2022/05/08 07:59:02;;;;;;;11.80;7.00;;;18.10;99.90;;;;;;5082203;28;20207;-83
2022/05/08 08:01:32;;;;;;;13.95;8.43;;;18.10;99.90;;;;;;5093898;28;20655;-83
2022/05/08 08:04:04;;;;;;;20.63;9.07;;;18.10;99.90;;;;;;5083920;28;20277;-83
2022/05/08 08:06:35;;;;;;;16.25;7.47;;;18.10;99.90;;;;;;5084472;28;20680;-84
2022/05/08 08:09:06;;;;;;;6.97;4.38;;;18.10;99.90;;;;;;5092079;28;20188;-83
2022/05/08 08:11:38;;;;;;;6.78;3.97;;;18.10;99.90;;;;;;5079037;28;20195;-81
2022/05/08 08:14:11;;;;;;;4.82;2.80;;;18.00;99.90;;;;;;5072268;28;20568;-83
2022/05/08 08:16:41;;;;;;;6.53;2.90;;;18.00;99.90;;;;;;5076890;28;20200;-83
2022/05/08 08:19:12;;;;;;;5.60;3.30;;;18.00;99.90;;;;;;5089386;28;20613;-84
2022/05/08 08:21:43;;;;;;;5.32;3.58;;;18.00;99.90;;;;;;5079843;28;20673;-86
2022/05/08 08:24:13;;;;;;;7.70;3.90;;;18.00;99.90;;;;;;5087798;28;20670;-86
2022/05/08 08:26:44;;;;;;;6.78;4.28;;;18.00;99.90;;;;;;5077947;28;20298;-86
2022/05/08 08:29:17;;;;;;;6.85;4.53;;;17.90;99.90;;;;;;5085801;28;20192;-86
2022/05/08 08:31:50;;;;;;;10.63;6.18;;;17.90;99.90;;;;;;5074601;28;20226;-86
2022/05/08 08:34:21;;;;;;;9.13;5.40;;;17.90;99.90;;;;;;5076581;28;20199;-86
2022/05/08 08:36:52;;;;;;;6.63;5.00;;;17.80;99.90;;;;;;5097190;28;20203;-85
2022/05/08 08:39:23;;;;;;;7.82;5.10;;;17.80;99.90;;;;;;5085465;28;20195;-86
2022/05/08 08:42:03;;;;;;;9.32;4.88;;;17.90;99.90;;;;;;5077858;28;20199;-87
2022/05/08 08:50:15;;;;;;;5.97;2.70;;;17.80;99.90;;;;;;5078960;28;20678;-85
2022/05/08 08:52:46;;;;;;;3.70;2.70;;;17.80;99.90;;;;;;5072665;28;20200;-86
2022/05/08 08:55:20;;;;;;;3.88;2.72;;;17.80;99.90;;;;;;5078327;27;20580;-82
2022/05/08 08:57:51;;;;;;;4.70;3.08;;;17.80;99.90;;;;;;5086551;28;20184;-87
2022/05/08 09:00:25;;;;;;;6.00;2.83;;;17.70;99.90;;;;;;5075266;28;20241;-85
2022/05/08 09:02:57;;;;;;;4.43;2.53;;;17.70;99.90;;;;;;5080278;28;20231;-86
2022/05/08 09:05:32;;;;;;;4.32;2.60;;;17.70;99.90;;;;;;5074113;28;20200;-87
2022/05/08 09:08:03;;;;;;;3.03;2.08;;;17.70;99.90;;;;;;5091318;28;20244;-81
2022/05/08 09:10:37;;;;;;;5.20;2.15;;;17.70;99.90;;;;;;5091357;28;20203;-81
2022/05/08 09:13:12;;;;;;;6.30;3.42;;;17.70;99.90;;;;;;5073746;28;20642;-80
2022/05/08 09:15:44;;;;;;;9.32;4.35;;;17.70;99.90;;;;;;5071631;28;20295;-82
2022/05/08 09:18:17;;;;;;;7.88;3.95;;;17.60;99.90;;;;;;5080449;28;20184;-82
2022/05/08 09:20:52;;;;;;;9.45;4.75;;;17.70;99.90;;;;;;5073344;28;20200;-82
2022/05/08 09:23:23;;;;;;;8.68;4.22;;;17.60;99.90;;;;;;5082618;28;20201;-82
2022/05/08 09:25:59;;;;;;;5.65;3.60;;;17.60;99.90;;;;;;5087167;28;20203;-84
2022/05/08 09:28:31;;;;;;;6.75;3.70;;;17.70;99.90;;;;;;5089766;28;20261;-83
2022/05/08 09:31:05;;;;;;;8.05;4.13;;;17.60;99.90;;;;;;5080636;28;20203;-83
2022/05/08 09:33:38;;;;;;;8.90;4.05;;;17.60;99.90;;;;;;5074637;28;20241;-84
2022/05/08 09:36:10;;;;;;;6.80;4.53;;;17.50;99.90;;;;;;5091146;28;20252;-81
2022/05/08 09:38:46;;;;;;;7.68;4.40;;;17.60;99.90;;;;;;5087108;28;20627;-82
2022/05/08 09:41:19;;;;;;;7.15;3.97;;;17.50;99.90;;;;;;5071277;28;20292;-83
2022/05/08 09:43:50;;;;;;;4.43;3.25;;;17.50;99.90;;;;;;5070634;28;20550;-83
2022/05/08 09:46:24;;;;;;;4.05;2.65;;;17.40;99.90;;;;;;5078023;28;20597;-81
2022/05/08 09:48:56;;;;;;;4.53;2.90;;;17.40;99.90;;;;;;5075991;28;20516;-82
2022/05/08 09:51:27;;;;;;;5.20;3.10;;;17.40;99.90;;;;;;5070599;28;20188;-82
2022/05/08 09:53:58;;;;;;;5.10;3.17;;;17.40;99.90;;;;;;5076469;28;20688;-82
2022/05/08 09:56:33;;;;;;;4.55;2.75;;;17.40;99.90;;;;;;5083995;28;20204;-82
2022/05/08 09:59:07;;;;;;;6.28;3.17;;;17.30;99.90;;;;;;5077346;28;20191;-83
2022/05/08 10:01:41;;;;;;;3.90;3.00;;;17.30;99.90;;;;;;5082967;28;20200;-85
2022/05/08 10:04:11;;;;;;;18.00;12.63;;;17.30;99.90;;;;;;5081644;28;20562;-83
2022/05/08 10:06:43;;;;;;;56.75;50.55;;;17.30;99.90;;;;;;5070078;28;20195;-83
2022/05/08 10:14:50;;;;;;;24.17;19.27;;;17.20;99.90;;;;;;5073091;28;20629;-82
2022/05/08 10:17:31;;;;;;;10.80;8.80;;;17.10;99.90;;;;;;5070796;28;20196;-83
2022/05/08 10:20:01;;;;;;;6.28;4.40;;;17.10;99.90;;;;;;5070744;28;20282;-84
2022/05/08 10:22:50;;;;;;;5.38;3.58;;;17.00;99.90;;;;;;5070508;28;20196;-84
2022/05/08 10:25:21;;;;;;;4.75;3.78;;;17.10;99.90;;;;;;5071455;28;20257;-84
2022/05/08 10:28:11;;;;;;;6.43;4.20;;;17.10;99.90;;;;;;5083739;28;20227;-84
2022/05/08 10:30:42;;;;;;;8.55;5.80;;;17.10;99.90;;;;;;5074841;28;20650;-83
2022/05/08 10:33:16;;;;;;;8.40;5.55;;;17.00;99.90;;;;;;5081153;28;20196;-80
2022/05/08 10:36:11;;;;;;;8.70;5.78;;;17.00;99.90;;;;;;5074752;28;20200;-82
2022/05/08 10:38:42;;;;;;;8.90;5.30;;;17.00;99.90;;;;;;5075275;28;20195;-80
2022/05/08 10:41:45;;;;;;;7.10;5.20;;;17.10;99.90;;;;;;5069115;28;20204;-80
2022/05/08 10:44:37;;;;;;;7.90;4.90;;;17.00;99.90;;;;;;5069260;28;20195;-80
2022/05/08 10:47:48;;;;;;;12.05;7.85;;;17.00;99.90;;;;;;5070814;28;20192;-81
2022/05/08 10:50:21;;;;;;;8.52;6.10;;;16.90;99.90;;;;;;5067667;28;20191;-80
2022/05/08 10:52:52;;;;;;;9.63;5.80;;;16.90;99.90;;;;;;5069098;28;20196;-80
2022/05/08 10:55:22;;;;;;;4.85;3.80;;;16.80;99.90;;;;;;5068955;28;20196;-82
2022/05/08 10:57:54;;;;;;;5.13;3.72;;;16.80;99.90;;;;;;5081126;28;20666;-82
2022/05/08 11:00:25;;;;;;;4.55;3.40;;;16.70;99.90;;;;;;5089495;28;20260;-83
2022/05/08 11:02:58;;;;;;;6.03;3.70;;;16.70;99.90;;;;;;5082712;28;20227;-82
2022/05/08 11:05:31;;;;;;;5.00;3.63;;;16.70;99.90;;;;;;5089105;28;20217;-81
2022/05/08 11:08:03;;;;;;;6.18;3.65;;;16.70;99.90;;;;;;5075873;28;20767;-81
2022/05/08 11:10:36;;;;;;;4.78;3.65;;;16.70;99.90;;;;;;5073300;28;20199;-78
2022/05/08 11:13:09;;;;;;;5.95;3.70;;;16.70;99.90;;;;;;5082292;28;20282;-79
2022/05/08 11:15:41;;;;;;;5.07;3.67;;;16.60;99.90;;;;;;5075021;28;20219;-81
2022/05/08 11:18:12;;;;;;;5.85;4.25;;;16.60;99.90;;;;;;5077458;28;20711;-80
2022/05/08 11:20:48;;;;;;;7.00;3.88;;;16.60;99.90;;;;;;5075968;28;20195;-80
2022/05/08 11:23:20;;;;;;;8.35;4.07;;;16.60;99.90;;;;;;5070325;28;20234;-82
2022/05/08 11:25:52;;;;;;;8.23;4.38;;;16.60;99.90;;;;;;5089513;28;20257;-81
2022/05/08 11:28:24;;;;;;;6.45;4.15;;;16.60;99.90;;;;;;5077054;28;20226;-83
2022/05/08 11:30:55;;;;;;;6.15;3.92;;;16.50;99.90;;;;;;5068624;28;20188;-83
2022/05/08 11:36:32;;;;;;;6.97;4.43;;;16.50;99.90;;;;;;5069101;28;20218;-83
2022/05/08 11:39:05;;;;;;;6.28;4.32;;;16.50;99.90;;;;;;5077278;28;20184;-83
2022/05/08 11:41:38;;;;;;;6.22;4.10;;;16.40;99.90;;;;;;5086621;28;20533;-81
2022/05/08 11:44:23;;;;;;;6.15;4.45;;;16.50;99.90;;;;;;5077850;28;20219;-81
2022/05/08 11:46:56;;;;;;;6.22;4.50;;;16.50;99.90;;;;;;5092443;28;20195;-81
2022/05/08 11:49:27;;;;;;;5.10;3.95;;;16.50;99.90;;;;;;5076704;28;20303;-80
2022/05/08 11:52:01;;;;;;;6.03;4.53;;;16.50;99.90;;;;;;5072672;28;20257;-80
2022/05/08 11:54:32;;;;;;;7.40;5.03;;;16.60;99.90;;;;;;5072784;28;20674;-81
2022/05/08 11:57:20;;;;;;;5.45;4.25;;;16.50;99.90;;;;;;5091866;28;20196;-81
2022/05/08 11:59:52;;;;;;;5.60;4.55;;;16.50;99.90;;;;;;5091665;28;20264;-80
2022/05/08 12:02:40;;;;;;;6.13;4.47;;;16.50;99.90;;;;;;5073605;28;20235;-81
2022/05/08 12:05:19;;;;;;;6.15;4.75;;;16.50;99.90;;;;;;5072449;28;20253;-81
2022/05/08 12:07:53;;;;;;;5.93;4.55;;;16.60;99.90;;;;;;5072712;28;20203;-82
2022/05/08 12:10:37;;;;;;;8.02;5.22;;;16.60;99.90;;;;;;5072538;28;20654;-81
2022/05/08 12:13:08;;;;;;;6.65;4.60;;;16.60;99.90;;;;;;5073316;28;20643;-81
2022/05/08 12:15:39;;;;;;;7.35;5.00;;;16.60;99.90;;;;;;5072028;28;20235;-81
2022/05/08 12:18:10;;;;;;;6.18;4.78;;;16.60;99.90;;;;;;5072098;28;20196;-81
2022/05/08 12:20:42;;;;;;;6.13;4.78;;;16.60;99.90;;;;;;5072475;28;20204;-83
2022/05/08 12:23:15;;;;;;;9.15;4.80;;;16.50;99.90;;;;;;5072147;28;20574;-83
2022/05/08 12:25:46;;;;;;;8.27;5.50;;;16.50;99.90;;;;;;5071947;28;20215;-82
2022/05/08 12:28:17;;;;;;;7.43;4.90;;;16.40;99.90;;;;;;5071967;28;20232;-83
2022/05/08 12:30:47;;;;;;;6.03;4.30;;;16.40;99.90;;;;;;5072452;28;20211;-82
2022/05/08 12:33:18;;;;;;;6.32;4.50;;;16.40;99.90;;;;;;5074195;28;20204;-81
2022/05/08 12:35:50;;;;;;;8.80;5.15;;;16.40;99.90;;;;;;5089746;28;20276;-82
2022/05/08 12:38:23;;;;;;;7.97;5.15;;;16.30;99.90;;;;;;5072292;28;20291;-82
2022/05/08 12:40:54;;;;;;;6.28;4.75;;;16.30;99.90;;;;;;5071933;28;20223;-81
2022/05/08 12:43:24;;;;;;;7.63;5.00;;;16.30;99.90;;;;;;5093827;28;20708;-81
2022/05/08 12:45:55;;;;;;;7.03;4.90;;;16.30;99.90;;;;;;5107868;28;20194;-80
2022/05/08 12:48:27;;;;;;;5.93;4.70;;;16.30;99.90;;;;;;5071569;28;20319;-80
2022/05/08 12:50:57;;;;;;;8.05;4.72;;;16.30;99.90;;;;;;5071748;28;20207;-81
2022/05/08 12:53:35;;;;;;;7.25;4.80;;;16.30;99.90;;;;;;5079346;28;20644;-80
2022/05/08 12:56:06;;;;;;;6.13;4.03;;;16.20;99.90;;;;;;5090964;28;20195;-81
2022/05/08 13:01:25;;;;;;;8.18;3.92;;;16.10;99.90;;;;;;5092231;28;20264;-81
2022/05/08 13:03:56;;;;;;;7.53;3.92;;;16.10;99.90;;;;;;5090954;28;20235;-82
2022/05/08 13:06:27;;;;;;;9.38;4.03;;;16.10;99.90;;;;;;5091607;28;20224;-81
2022/05/08 13:09:00;;;;;;;5.90;3.50;;;16.00;99.90;;;;;;5091727;28;20219;-83
2022/05/08 13:11:31;;;;;;;4.57;3.05;;;16.00;99.90;;;;;;5074585;28;20229;-83
2022/05/08 13:14:02;;;;;;;4.90;3.05;;;15.90;99.90;;;;;;5070910;28;20223;-83
2022/05/08 13:16:32;;;;;;;5.22;3.42;;;15.80;99.90;;;;;;5070998;28;20582;-83
2022/05/08 13:19:03;;;;;;;6.75;4.00;;;15.80;99.90;;;;;;5071169;28;20260;-84
2022/05/08 13:21:36;;;;;;;4.68;2.92;;;15.90;99.90;;;;;;5071652;28;20655;-83
2022/05/08 13:24:10;;;;;;;6.80;3.13;;;15.90;99.90;;;;;;5071151;28;20605;-83
2022/05/08 13:26:41;;;;;;;3.92;3.03;;;15.90;99.90;;;;;;5073013;28;20199;-83
2022/05/08 13:29:13;;;;;;;4.60;3.10;;;15.90;99.90;;;;;;5091066;28;20234;-84
2022/05/08 13:31:43;;;;;;;4.35;2.90;;;15.90;99.90;;;;;;5091315;28;20199;-83
2022/05/08 13:34:15;;;;;;;4.88;2.92;;;15.90;99.90;;;;;;5089403;28;20191;-83
2022/05/08 13:36:45;;;;;;;4.78;2.83;;;16.00;99.90;;;;;;5086372;28;20574;-83
2022/05/08 13:39:18;;;;;;;4.45;3.42;;;16.00;99.90;;;;;;5070706;28;20655;-83
2022/05/08 13:41:49;;;;;;;6.45;3.30;;;16.00;99.90;;;;;;5071552;28;20196;-83